Aeroporto :
LOGIN :

Iscrizione | Disclaimer

   EN    FR    IT 

 










Sommario :    VFR   VFR Marginale   IFR   IFR Intensivo   IFR Molto Intensivo
Visibilità : 
Base nubi : 
>= 8 km
>= 3000ft
5 / 8 km
1000 / 3000 ft
1500m / 5 km
500 / 1000 ft
800 / 1500m
200 / 500 ft
< 800m
< 200 ft
Simboli :   Temporali  Nebbia  Neve Forte  Precipitazioni Forti  Vento > 20 kt
SIGMETs :   Varie  Temporali  Ghiacco  Turbolenza  Onda orograficha  Ceneri Vulcaniche






- Altitudine del aeroporto : 93 ft
- Codice IATA : XRY


LEJR - Jerez

ULTIMO METAR :
  • 252030Z 10005KT 070V150 CAVOK 23/13 Q1019

METARs OBSOLETI :
  • 252000Z 12004KT 060V150 CAVOK 23/13 Q1019
  • 251930Z 15005KT 110V190 CAVOK 24/14 Q1019
  • 251900Z 14005KT 090V200 CAVOK 26/14 Q1019
  • 251830Z 14008KT 090V180 CAVOK 26/13 Q1018
  • 251800Z 14011KT 110V170 CAVOK 27/13 Q1018

TAF TAF LEJR
Valido dal 25 a 18 ore il 26 a 18 ore UTC


251700Z 2518/2618 11009KT CAVOK TX32/2614Z TN17/2605Z
PROB40
TEMPO 2608/2618 10015G25KT



MetMap, La meteo Aeronautica in un colpo d'occhio ! - Copyright ORBIFLY Dicembre 2007 - Disclaimer

ORBIFLY MET'MAP TEAM :

Programmazione e sviluppo : Alexandra Zaïnal
Concezione : Baudouin d'Aumeries
Aiuto per la programmazione : Marc-Olivier Méhu
Supporto tecnico e logistico : Manuel Goepfert
Aiuto per la traduzione : Arnaldo La Scala

Contatto : metmap@orbifly.com




FONTI E CREDITI :

   NOAA